Time;durP1;ratioP1;P1;durP2;ratioP2;P2;SDS_P1;SDS_P2;PMS_P1;PMS_P2;Temp;Humidity;BMP_temperature;BMP_pressure;BME280_temperature;BME280_humidity;BME280_pressure;Samples;Min_cycle;Max_cycle;Signal;HPM_P1;HPM_P2
2021/07/16 00:01:17;;;;;;;27.20;18.03;;;;;;;20.56;76.23;98337.27;512186;1092;103128;-42
2021/07/16 00:11:27;;;;;;;25.25;16.70;;;;;;;20.62;75.95;98335.30;512286;1092;103109;-42
2021/07/16 00:21:35;;;;;;;23.93;17.43;;;;;;;20.38;76.00;98319.39;512118;1092;103120;-42
2021/07/16 00:31:43;;;;;;;19.00;17.00;;;;;;;20.22;76.20;98322.39;512289;1092;103109;-44
2021/07/16 00:41:51;;;;;;;31.03;18.87;;;;;;;20.19;76.90;98301.52;512240;1092;103503;-42
2021/07/16 00:52:00;;;;;;;28.60;19.03;;;;;;;20.28;76.82;98301.59;512325;1093;103117;-42
2021/07/16 01:12:31;;;;;;;25.40;18.75;;;;;;;20.13;77.07;98348.36;512250;1095;103492;-41
2021/07/16 01:22:41;;;;;;;31.13;20.73;;;;;;;20.13;77.17;98340.30;511971;1095;103531;-40
2021/07/16 01:32:50;;;;;;;27.70;18.93;;;;;;;20.08;77.18;98361.05;511971;1095;103111;-42
2021/07/16 01:43:00;;;;;;;29.60;18.60;;;;;;;20.13;77.58;98369.03;511931;1095;103112;-43
2021/07/16 01:53:08;;;;;;;31.23;19.50;;;;;;;20.03;77.53;98366.52;511904;1095;103128;-43
2021/07/16 02:03:18;;;;;;;24.33;18.90;;;;;;;20.10;78.02;98375.77;512190;1093;103432;-44
2021/07/16 02:13:26;;;;;;;26.83;18.50;;;;;;;20.10;77.87;98377.66;511988;1095;103107;-43
2021/07/16 02:23:32;;;;;;;;;;;;;;;20.24;78.08;98378.47;512050;1094;103135;-42
2021/07/16 02:33:41;;;;;;;34.57;20.33;;;;;;;20.36;78.52;98354.61;512239;1092;103133;-43
2021/07/16 02:43:46;;;;;;;;;;;;;;;20.52;78.49;98338.98;511978;1095;103111;-42
2021/07/16 02:53:54;;;;;;;28.03;18.53;;;;;;;20.50;78.78;98330.43;512011;1095;103203;-41
2021/07/16 03:04:02;;;;;;;23.02;18.50;;;;;;;20.70;78.42;98354.17;512102;1094;103130;-40
2021/07/16 03:14:09;;;;;;;27.93;20.33;;;;;;;20.77;78.23;98322.30;512106;1096;103504;-42
2021/07/16 03:24:18;;;;;;;29.80;19.53;;;;;;;20.91;78.45;98314.20;511965;1096;103428;-41
2021/07/16 03:34:26;;;;;;;31.80;16.73;;;;;;;21.22;77.84;98318.84;512091;1092;103505;-41
2021/07/16 03:44:33;;;;;;;26.30;19.58;;;;;;;21.07;78.50;98330.78;511975;1095;103147;-40
2021/07/16 03:54:47;;;;;;;25.43;18.93;;;;;;;21.01;77.88;98316.64;511812;1095;104199;-41
2021/07/16 04:04:55;;;;;;;31.28;20.03;;;;;;;20.77;78.00;98330.36;512036;1095;103051;-41
2021/07/16 04:15:04;;;;;;;31.13;20.07;;;;;;;20.71;78.40;98338.84;512030;1095;103528;-43
2021/07/16 04:25:14;;;;;;;33.85;20.20;;;;;;;20.60;78.93;98353.61;512042;1095;103233;-43
2021/07/16 04:35:22;;;;;;;30.50;21.37;;;;;;;20.74;78.94;98354.36;512018;1095;103108;-44
2021/07/16 04:45:28;;;;;;;;;;;;;;;20.91;79.47;98354.52;512169;1092;103110;-42
2021/07/16 04:55:35;;;;;;;26.37;18.30;;;;;;;21.26;79.31;98352.11;511868;1094;103113;-42
2021/07/16 05:05:43;;;;;;;24.75;17.90;;;;;;;21.30;79.79;98347.73;511927;1095;103470;-45
2021/07/16 05:15:50;;;;;;;33.13;19.03;;;;;;;21.50;79.64;98370.63;512028;1095;103135;-43
2021/07/16 05:25:58;;;;;;;30.73;18.20;;;;;;;21.85;79.32;98410.09;512235;1092;103384;-40
2021/07/16 05:46:13;;;;;;;30.95;20.48;;;;;;;22.50;78.85;98414.84;511900;1094;103536;-43
2021/07/16 05:56:21;;;;;;;28.30;18.80;;;;;;;22.99;78.07;98417.50;512167;1095;103129;-42
2021/07/16 06:06:28;;;;;;;23.93;16.70;;;;;;;23.10;77.70;98433.05;511974;1095;103156;-42
2021/07/16 06:16:36;;;;;;;28.80;18.07;;;;;;;23.20;76.75;98451.63;512160;1094;103544;-42
2021/07/16 06:26:44;;;;;;;26.15;16.20;;;;;;;23.00;76.83;98462.23;511980;1095;103052;-42
2021/07/16 06:36:52;;;;;;;25.83;15.33;;;;;;;23.39;76.85;98456.69;511909;1095;103125;-43
2021/07/16 06:47:00;;;;;;;26.03;18.07;;;;;;;24.10;75.96;98456.30;512197;1095;103510;-42
2021/07/16 06:57:08;;;;;;;22.73;16.93;;;;;;;23.92;74.53;98469.08;511841;1095;103429;-42
2021/07/16 07:07:15;;;;;;;24.77;16.47;;;;;;;24.30;74.07;98471.05;512309;1094;103432;-42
2021/07/16 07:17:23;;;;;;;20.23;13.77;;;;;;;24.92;72.86;98463.13;512101;1094;103470;-45
2021/07/16 07:37:38;;;;;;;21.60;10.25;;;;;;;26.46;69.47;98464.01;512066;1094;103396;-41
2021/07/16 07:47:47;;;;;;;17.90;10.90;;;;;;;26.80;67.29;98458.14;512008;1095;103274;-42
2021/07/16 07:57:54;;;;;;;15.57;10.87;;;;;;;26.68;66.45;98466.27;511917;1095;103510;-43
2021/07/16 08:08:02;;;;;;;14.40;10.80;;;;;;;25.94;65.89;98480.83;512077;1092;103421;-43
2021/07/16 08:18:09;;;;;;;17.03;12.13;;;;;;;25.65;65.57;98492.55;512083;1092;103512;-43
2021/07/16 08:28:16;;;;;;;21.70;12.60;;;;;;;25.49;66.11;98486.14;512224;1093;103047;-44
2021/07/16 08:38:24;;;;;;;22.93;14.73;;;;;;;25.59;66.41;98481.13;511977;1092;103445;-43
2021/07/16 08:48:33;;;;;;;21.97;15.77;;;;;;;25.38;65.75;98491.97;512237;1091;103115;-44
2021/07/16 08:58:40;;;;;;;19.67;14.00;;;;;;;25.36;66.01;98491.51;512220;1092;103219;-42
2021/07/16 09:08:49;;;;;;;23.90;13.13;;;;;;;25.51;66.62;98481.19;512238;1092;103530;-43
2021/07/16 09:18:59;;;;;;;17.20;12.27;;;;;;;25.92;66.22;98473.03;512329;1091;103562;-43
2021/07/16 09:29:07;;;;;;;23.43;11.47;;;;;;;26.28;65.13;98479.68;512122;1091;103515;-43
2021/07/16 09:49:25;;;;;;;13.40;8.17;;;;;;;27.61;63.37;98480.70;512201;1092;103122;-44
2021/07/16 09:59:34;;;;;;;11.65;8.50;;;;;;;27.47;61.65;98494.69;512195;1092;103520;-44
2021/07/16 10:09:42;;;;;;;13.37;9.90;;;;;;;28.44;61.29;98503.56;512040;1093;103115;-44
2021/07/16 10:19:51;;;;;;;11.77;9.23;;;;;;;28.48;59.13;98507.16;512136;1092;104194;-44
2021/07/16 10:30:06;;;;;;;10.70;8.73;;;;;;;28.58;58.70;98494.94;512058;1092;103127;-43
2021/07/16 10:40:32;;;;;;;13.65;9.25;;;;;;;28.56;58.23;98499.95;512208;1092;103246;-44
2021/07/16 10:50:41;;;;;;;10.77;8.33;;;;;;;28.43;57.68;98477.50;512082;1092;103605;-44
2021/07/16 11:00:54;;;;;;;13.73;8.77;;;;;;;28.69;57.33;98477.75;512185;1092;103520;-44
2021/07/16 11:11:05;;;;;;;12.30;8.60;;;;;;;28.81;56.64;98476.05;512111;1091;103240;-42
2021/07/16 11:21:13;;;;;;;13.37;9.30;;;;;;;28.74;55.97;98473.96;512187;1092;103125;-43
2021/07/16 11:31:20;;;;;;;11.15;8.10;;;;;;;28.78;56.27;98479.48;512229;1092;103146;-43
2021/07/16 11:41:30;;;;;;;12.57;8.67;;;;;;;28.96;55.27;98486.16;512202;1091;103384;-44
2021/07/16 11:51:38;;;;;;;13.57;9.33;;;;;;;29.26;55.67;98476.32;512175;1091;103386;-45
2021/07/16 12:02:04;;;;;;;15.70;9.17;;;;;;;29.82;55.42;98469.70;511989;1093;103493;-44
2021/07/16 12:12:15;;;;;;;16.43;10.40;;;;;;;30.27;55.34;98468.95;512128;1093;103092;-45
2021/07/16 12:22:21;;;;;;;12.23;9.50;;;;;;;30.03;54.34;98469.28;512286;1093;103431;-44
2021/07/16 12:32:38;;;;;;;11.27;9.93;;;;;;;29.95;53.26;98471.88;512202;1092;103456;-43
2021/07/16 12:43:04;;;;;;;10.17;9.17;;;;;;;29.74;52.52;98460.58;512166;1091;103083;-44
2021/07/16 12:53:13;;;;;;;9.83;8.77;;;;;;;29.40;53.65;98480.50;512035;1092;103472;-43
2021/07/16 13:13:24;;;;;;;14.37;8.27;;;;;;;28.91;53.78;98461.95;512245;1092;103499;-44
2021/07/16 13:23:32;;;;;;;15.67;13.37;;;;;;;28.71;54.94;98455.63;512252;1093;103137;-43
2021/07/16 13:33:40;;;;;;;20.57;13.63;;;;;;;27.95;56.30;98457.61;512489;1091;103073;-41
2021/07/16 13:43:48;;;;;;;20.13;14.23;;;;;;;27.91;57.70;98464.86;512511;1091;103202;-41
2021/07/16 13:53:54;;;;;;;21.73;15.17;;;;;;;27.34;58.10;98473.34;512351;1093;103160;-43
2021/07/16 14:04:01;;;;;;;;;;;;;;;26.91;59.11;98482.88;512322;1093;103092;-41
2021/07/16 14:14:10;;;;;;;22.03;14.73;;;;;;;27.07;60.49;98466.73;512393;1093;103143;-43
2021/07/16 14:24:16;;;;;;;15.33;13.30;;;;;;;27.12;60.41;98463.77;512600;1093;103163;-44
2021/07/16 14:34:24;;;;;;;18.00;12.95;;;;;;;26.95;60.83;98461.27;512205;1091;103126;-43
2021/07/16 14:44:30;;;;;;;21.10;13.10;;;;;;;26.80;61.10;98454.64;512256;1092;103111;-41
2021/07/16 14:54:37;;;;;;;17.77;14.17;;;;;;;26.82;61.94;98466.73;512378;1092;103546;-43
2021/07/16 15:04:44;;;;;;;22.40;12.73;;;;;;;26.73;61.15;98451.69;512411;1091;103222;-42
2021/07/16 15:14:50;;;;;;;19.07;12.23;;;;;;;26.57;61.64;98454.31;512271;1092;103084;-42
2021/07/16 15:24:58;;;;;;;14.63;11.93;;;;;;;26.81;61.96;98443.45;512183;1092;103141;-42
2021/07/16 17:13:27;;;;;;;19.95;10.95;;;;;;;26.26;60.50;98454.80;512866;1092;103390;-43
2021/07/16 17:23:35;;;;;;;13.97;10.70;;;;;;;26.30;60.83;98461.16;512953;1091;103556;-43
2021/07/16 17:33:42;;;;;;;11.57;9.60;;;;;;;26.30;60.82;98475.50;513296;1091;103476;-43
2021/07/16 17:43:49;;;;;;;15.20;9.23;;;;;;;26.18;61.15;98469.26;512779;1092;104256;-43
2021/07/16 17:53:56;;;;;;;11.18;9.30;;;;;;;25.99;61.22;98478.69;512689;1091;103189;-42
2021/07/16 18:04:04;;;;;;;13.10;9.80;;;;;;;25.93;61.74;98485.45;512899;1092;103146;-44
2021/07/16 18:24:17;;;;;;;;;;;;;;;25.54;62.27;98486.73;512896;1091;103497;-42
2021/07/16 18:34:26;;;;;;;14.95;12.43;;;;;;;25.22;62.64;98482.05;512733;1092;103460;-42
2021/07/16 18:44:33;;;;;;;18.83;10.43;;;;;;;25.11;63.00;98506.01;512711;1091;103120;-43
2021/07/16 18:54:42;;;;;;;17.75;10.95;;;;;;;24.91;63.64;98509.44;512844;1092;103137;-42
2021/07/16 19:04:50;;;;;;;21.60;12.67;;;;;;;24.51;64.27;98517.88;512880;1092;103119;-42
2021/07/16 19:14:59;;;;;;;22.57;10.00;;;;;;;24.32;64.64;98541.77;512869;1091;103427;-43
2021/07/16 19:25:10;;;;;;;17.50;11.87;;;;;;;24.19;65.05;98546.23;512929;1092;103492;-42
2021/07/16 19:35:18;;;;;;;16.17;11.60;;;;;;;24.01;65.46;98558.17;512787;1091;103473;-43
2021/07/16 19:45:26;;;;;;;16.27;11.13;;;;;;;23.84;66.14;98575.17;513037;1092;103472;-42
2021/07/16 19:55:31;;;;;;;17.63;11.47;;;;;;;23.71;66.43;98573.44;512879;1092;103410;-42
2021/07/16 20:05:39;;;;;;;16.87;10.97;;;;;;;23.58;66.89;98564.36;512944;1092;103127;-42
2021/07/16 20:15:47;;;;;;;20.97;12.40;;;;;;;23.47;67.20;98553.06;513003;1091;103495;-43
2021/07/16 20:25:54;;;;;;;15.23;11.67;;;;;;;23.20;67.50;98558.73;512878;1092;103127;-43
2021/07/16 20:36:03;;;;;;;16.67;13.33;;;;;;;22.99;68.13;98561.21;513006;1092;103080;-44
2021/07/16 20:46:12;;;;;;;20.13;11.50;;;;;;;23.00;68.93;98567.40;513151;1091;103212;-43
2021/07/16 20:56:20;;;;;;;23.53;12.97;;;;;;;22.83;68.72;98560.83;512822;1092;103099;-43
2021/07/16 21:06:28;;;;;;;22.13;12.90;;;;;;;22.63;69.23;98581.00;512974;1091;103172;-43
2021/07/16 21:16:36;;;;;;;19.20;13.73;;;;;;;22.47;69.62;98593.27;512895;1091;103132;-43
2021/07/16 21:26:44;;;;;;;17.93;14.17;;;;;;;22.26;70.15;98608.37;512825;1091;103460;-42
2021/07/16 21:36:52;;;;;;;24.00;15.45;;;;;;;22.11;70.03;98595.26;512842;1092;103120;-41
2021/07/16 21:46:58;;;;;;;;;;;;;;;21.82;70.57;98566.83;512730;1091;103441;-42
2021/07/16 21:57:04;;;;;;;17.90;12.90;;;;;;;21.80;70.75;98577.10;512751;1091;103121;-43
2021/07/16 22:07:11;;;;;;;19.63;13.17;;;;;;;21.67;70.53;98567.16;512905;1091;103420;-43
2021/07/16 22:17:19;;;;;;;19.48;12.70;;;;;;;21.67;71.20;98588.69;512784;1091;103374;-43
2021/07/16 22:27:25;;;;;;;;;;;;;;;21.48;71.19;98596.09;512769;1092;103109;-43
2021/07/16 22:37:33;;;;;;;21.73;11.03;;;;;;;21.25;71.03;98596.02;512819;1092;103455;-45
2021/07/16 22:47:39;;;;;;;19.78;11.88;;;;;;;21.23;71.54;98592.81;512891;1093;103085;-42
2021/07/16 22:57:47;;;;;;;21.30;14.80;;;;;;;21.08;71.97;98585.07;512951;1091;103140;-43
2021/07/16 23:07:56;;;;;;;20.43;13.53;;;;;;;20.68;71.95;98562.45;512836;1092;103454;-41
2021/07/16 23:18:20;;;;;;;16.83;12.07;;;;;;;20.57;71.88;98559.13;512833;1092;103483;-42
2021/07/16 23:38:34;;;;;;;19.57;12.57;;;;;;;20.37;72.89;98543.38;512658;1092;103496;-44
2021/07/16 23:48:41;;;;;;;16.37;12.03;;;;;;;20.42;73.23;98546.79;512821;1091;103093;-42
2021/07/16 23:58:49;;;;;;;17.50;12.35;;;;;;;20.31;73.10;98539.95;512733;1092;103173;-43
